createdAt,value
2019-01-29T00:00:57.248Z,12.40
2019-01-29T00:03:23.665Z,8.60
2019-01-29T00:05:50.069Z,9.20
2019-01-29T00:08:16.504Z,9.40
2019-01-29T00:10:43.266Z,9.43
2019-01-29T00:13:09.661Z,9.03
2019-01-29T00:15:35.989Z,7.72
2019-01-29T00:18:02.901Z,9.78
2019-01-29T00:20:29.252Z,7.90
2019-01-29T00:22:55.558Z,7.33
2019-01-29T00:25:21.870Z,8.25
2019-01-29T00:27:48.290Z,7.50
2019-01-29T00:30:15.237Z,8.75
2019-01-29T00:32:41.801Z,7.45
2019-01-29T00:35:08.401Z,7.28
2019-01-29T00:37:34.926Z,8.88
2019-01-29T00:40:01.243Z,9.90
2019-01-29T00:42:27.657Z,8.13
2019-01-29T00:44:54.666Z,8.15
2019-01-29T00:47:21.084Z,8.83
2019-01-29T00:49:47.393Z,7.40
2019-01-29T00:52:13.861Z,7.50
2019-01-29T00:54:40.563Z,5.78
2019-01-29T00:57:06.821Z,6.35
2019-01-29T00:59:33.226Z,7.75
2019-01-29T01:01:59.526Z,6.62
2019-01-29T01:04:25.835Z,7.00
2019-01-29T01:06:52.125Z,9.28
2019-01-29T01:09:18.657Z,7.42
2019-01-29T01:11:44.980Z,9.35
2019-01-29T01:14:11.300Z,8.68
2019-01-29T01:16:37.604Z,7.80
2019-01-29T01:19:04.023Z,7.58
2019-01-29T01:21:30.453Z,9.43
2019-01-29T01:23:56.751Z,11.12
2019-01-29T01:26:23.284Z,7.37
2019-01-29T01:28:49.792Z,8.85
2019-01-29T01:31:16.464Z,7.60
2019-01-29T01:33:43.309Z,6.45
2019-01-29T01:36:09.724Z,8.95
2019-01-29T01:38:36.047Z,8.90
2019-01-29T01:41:02.458Z,7.30
2019-01-29T01:43:29.004Z,11.05
2019-01-29T01:45:55.551Z,7.97
2019-01-29T01:48:22.036Z,6.35
2019-01-29T01:50:48.440Z,8.50
2019-01-29T01:53:14.754Z,6.85
2019-01-29T01:55:41.064Z,7.85
2019-01-29T01:58:07.504Z,7.85
2019-01-29T02:00:34.505Z,7.08
2019-01-29T02:03:01.123Z,6.87
2019-01-29T02:05:27.525Z,8.05
2019-01-29T02:07:53.822Z,6.55
2019-01-29T02:10:25.128Z,13.35
2019-01-29T02:12:51.768Z,7.05
2019-01-29T02:15:18.315Z,8.40
2019-01-29T02:17:44.866Z,6.90
2019-01-29T02:20:13.475Z,8.55
2019-01-29T02:22:39.983Z,8.30
2019-01-29T02:25:06.653Z,9.90
2019-01-29T02:27:33.027Z,8.03
2019-01-29T02:29:59.638Z,9.70
2019-01-29T02:32:26.050Z,9.00
2019-01-29T02:34:52.341Z,8.95
2019-01-29T02:37:18.874Z,6.72
2019-01-29T02:39:45.181Z,8.28
2019-01-29T02:42:11.632Z,8.10
2019-01-29T02:44:37.928Z,8.33
2019-01-29T02:47:04.239Z,7.92
2019-01-29T02:49:30.710Z,9.58
2019-01-29T02:51:57.012Z,7.60
2019-01-29T02:54:23.450Z,9.70
2019-01-29T02:56:49.753Z,8.13
2019-01-29T02:59:16.171Z,6.62
2019-01-29T03:01:42.594Z,9.28
2019-01-29T03:04:08.999Z,7.25
2019-01-29T03:06:35.851Z,8.30
2019-01-29T03:09:05.571Z,7.15
2019-01-29T03:11:33.341Z,9.38
2019-01-29T03:13:59.889Z,8.43
2019-01-29T03:16:26.401Z,5.83
2019-01-29T03:18:53.141Z,8.30
2019-01-29T03:21:19.768Z,6.45
2019-01-29T03:23:46.071Z,7.70
2019-01-29T03:26:12.510Z,7.47
2019-01-29T03:28:38.913Z,7.17
2019-01-29T03:31:05.249Z,7.40
2019-01-29T03:33:31.561Z,6.92
2019-01-29T03:35:58.072Z,11.70
2019-01-29T03:38:24.468Z,7.45
2019-01-29T03:40:50.705Z,7.95
2019-01-29T03:43:17.033Z,7.87
2019-01-29T03:45:43.701Z,8.95
2019-01-29T03:48:10.157Z,6.15
2019-01-29T03:50:36.591Z,6.40
2019-01-29T03:53:03.106Z,6.85
2019-01-29T03:55:29.760Z,6.22
2019-01-29T03:57:56.375Z,6.62
2019-01-29T04:00:25.208Z,6.42
2019-01-29T04:02:51.922Z,6.78
2019-01-29T04:05:18.313Z,6.28
2019-01-29T04:07:44.851Z,8.05
2019-01-29T04:10:15.711Z,5.83
2019-01-29T04:12:42.841Z,6.33
2019-01-29T04:15:14.914Z,7.83
2019-01-29T04:17:41.215Z,7.17
2019-01-29T04:20:11.334Z,7.05
2019-01-29T04:22:37.856Z,4.70
2019-01-29T04:25:05.891Z,6.35
2019-01-29T04:27:32.383Z,6.17
2019-01-29T04:29:58.722Z,5.95
2019-01-29T04:32:25.359Z,7.58
2019-01-29T04:34:51.890Z,6.05
2019-01-29T04:37:18.220Z,7.67
2019-01-29T04:39:44.646Z,5.75
2019-01-29T04:42:10.949Z,7.22
2019-01-29T04:44:37.278Z,8.73
2019-01-29T04:47:03.680Z,13.00
2019-01-29T04:49:30.005Z,17.25
2019-01-29T04:51:56.946Z,22.30
2019-01-29T04:54:23.350Z,17.77
2019-01-29T04:56:49.835Z,19.48
2019-01-29T04:59:21.563Z,9.48
2019-01-29T05:01:47.928Z,14.40
2019-01-29T05:04:14.478Z,17.62
2019-01-29T05:06:41.269Z,17.25
2019-01-29T05:09:08.086Z,14.00
2019-01-29T05:11:34.360Z,14.25
2019-01-29T05:14:00.805Z,14.60
2019-01-29T05:16:27.233Z,8.05
2019-01-29T05:18:53.876Z,9.43
2019-01-29T05:21:20.602Z,11.63
2019-01-29T05:23:47.035Z,5.45
2019-01-29T05:26:13.440Z,7.40
2019-01-29T05:28:39.954Z,5.10
2019-01-29T05:31:06.900Z,5.03
2019-01-29T05:33:33.283Z,3.67
2019-01-29T05:35:59.710Z,4.05
2019-01-29T05:38:26.149Z,5.35
2019-01-29T05:40:52.576Z,4.03
2019-01-29T05:43:18.997Z,5.45
2019-01-29T05:45:45.637Z,3.45
2019-01-29T05:48:12.429Z,2.98
2019-01-29T05:50:39.071Z,5.08
2019-01-29T05:53:05.678Z,2.87
2019-01-29T05:55:32.481Z,2.95
2019-01-29T05:57:58.905Z,6.05
2019-01-29T06:00:28.116Z,2.42
2019-01-29T06:02:54.430Z,3.02
2019-01-29T06:05:20.828Z,2.42
2019-01-29T06:07:47.153Z,4.12
2019-01-29T06:10:16.930Z,3.42
2019-01-29T06:12:43.892Z,3.40
2019-01-29T06:15:16.529Z,3.87
2019-01-29T06:17:43.282Z,3.98
2019-01-29T06:20:18.345Z,3.27
2019-01-29T06:22:45.064Z,3.47
2019-01-29T06:25:11.573Z,4.03
2019-01-29T06:27:38.095Z,4.00
2019-01-29T06:30:10.612Z,5.35
2019-01-29T06:32:37.041Z,6.30
2019-01-29T06:35:07.113Z,4.75
2019-01-29T06:37:33.609Z,4.45
2019-01-29T06:40:00.030Z,4.20
2019-01-29T06:42:26.545Z,4.92
2019-01-29T06:44:53.398Z,4.17
2019-01-29T06:47:19.901Z,3.77
2019-01-29T06:49:46.430Z,5.85
2019-01-29T06:52:12.953Z,6.78
2019-01-29T06:54:40.822Z,4.33
2019-01-29T06:57:07.309Z,4.80
2019-01-29T06:59:33.861Z,6.08
2019-01-29T07:02:00.698Z,4.80
2019-01-29T07:04:27.208Z,3.58
2019-01-29T07:06:53.544Z,3.70
2019-01-29T07:09:20.563Z,3.75
2019-01-29T07:11:50.713Z,9.15
2019-01-29T07:14:17.034Z,4.17
2019-01-29T07:16:45.361Z,7.60
2019-01-29T07:19:13.603Z,4.75
2019-01-29T07:21:40.167Z,6.92
2019-01-29T07:24:06.792Z,5.80
2019-01-29T07:26:33.444Z,6.67
2019-01-29T07:28:59.927Z,5.55
2019-01-29T07:31:26.405Z,4.25
2019-01-29T07:33:55.659Z,3.92
2019-01-29T07:36:22.160Z,5.05
2019-01-29T07:38:48.579Z,6.65
2019-01-29T07:41:15.385Z,6.80
2019-01-29T07:43:41.702Z,6.12
2019-01-29T07:46:08.105Z,4.05
2019-01-29T07:48:34.736Z,5.08
2019-01-29T07:51:01.156Z,4.45
2019-01-29T07:53:27.581Z,5.15
2019-01-29T07:55:54.075Z,4.97
2019-01-29T07:58:20.810Z,4.40
2019-01-29T08:00:47.331Z,3.92
2019-01-29T08:03:13.731Z,5.90
2019-01-29T08:05:40.285Z,4.28
2019-01-29T08:08:06.676Z,5.03
2019-01-29T08:10:33.077Z,5.85
2019-01-29T08:12:59.637Z,4.47
2019-01-29T08:15:26.392Z,5.35
2019-01-29T08:17:53.020Z,5.37
2019-01-29T08:20:20.052Z,11.03
2019-01-29T08:22:46.545Z,8.60
2019-01-29T08:25:16.884Z,9.55
2019-01-29T08:27:43.569Z,12.37
2019-01-29T08:30:15.506Z,6.90
2019-01-29T08:32:41.935Z,11.03
2019-01-29T08:35:10.902Z,10.03
2019-01-29T08:37:38.005Z,7.45
2019-01-29T08:40:08.299Z,7.45
2019-01-29T08:42:34.746Z,7.67
2019-01-29T08:45:01.219Z,10.28
2019-01-29T08:47:27.691Z,4.85
2019-01-29T08:49:54.009Z,9.95
2019-01-29T08:52:20.618Z,6.10
2019-01-29T08:54:47.485Z,6.42
2019-01-29T08:57:13.922Z,9.40
2019-01-29T08:59:40.248Z,7.35
2019-01-29T09:02:08.167Z,6.65
2019-01-29T09:04:35.193Z,7.83
2019-01-29T09:07:01.791Z,7.25
2019-01-29T09:09:31.699Z,7.62
2019-01-29T09:12:06.868Z,7.95
2019-01-29T09:14:33.794Z,6.55
2019-01-29T09:17:00.402Z,6.75
2019-01-29T09:19:26.949Z,7.25
2019-01-29T09:21:54.535Z,5.45
2019-01-29T09:24:20.950Z,4.50
2019-01-29T09:26:47.261Z,7.10
2019-01-29T09:29:17.821Z,6.42
2019-01-29T09:31:45.281Z,8.60
2019-01-29T09:34:11.670Z,7.08
2019-01-29T09:36:38.689Z,6.92
2019-01-29T09:39:07.730Z,4.85
2019-01-29T09:41:34.257Z,8.70
2019-01-29T09:44:00.922Z,10.18
2019-01-29T09:46:27.532Z,15.45
2019-01-29T09:48:54.120Z,14.10
2019-01-29T09:51:20.680Z,6.70
2019-01-29T09:53:47.386Z,9.03
2019-01-29T09:56:13.944Z,19.55
2019-01-29T09:58:40.515Z,7.37
2019-01-29T10:01:07.029Z,8.35
2019-01-29T10:03:33.592Z,8.25
2019-01-29T10:06:00.507Z,9.23
2019-01-29T10:08:27.160Z,8.68
2019-01-29T10:10:53.676Z,10.25
2019-01-29T10:13:20.281Z,10.85
2019-01-29T10:15:47.028Z,7.37
2019-01-29T10:18:13.565Z,6.37
2019-01-29T10:20:40.119Z,8.95
2019-01-29T10:23:06.958Z,9.53
2019-01-29T10:25:37.983Z,7.78
2019-01-29T10:28:02.061Z,8.80
2019-01-29T10:30:28.700Z,6.45
2019-01-29T10:32:55.265Z,7.25
2019-01-29T10:35:24.076Z,8.88
2019-01-29T10:37:50.391Z,7.33
2019-01-29T10:40:19.006Z,12.68
2019-01-29T10:42:45.527Z,11.68
2019-01-29T10:45:14.479Z,10.38
2019-01-29T10:47:40.772Z,9.35
2019-01-29T10:50:13.737Z,6.45
2019-01-29T10:52:40.427Z,6.95
2019-01-29T10:55:07.839Z,7.85
2019-01-29T10:57:34.522Z,7.97
2019-01-29T11:00:00.926Z,5.97
2019-01-29T11:02:32.628Z,12.70
2019-01-29T11:05:09.028Z,7.75
2019-01-29T11:07:35.710Z,10.78
2019-01-29T11:10:02.845Z,13.13
2019-01-29T11:12:29.274Z,9.95
2019-01-29T11:14:55.601Z,10.55
2019-01-29T11:17:22.581Z,13.95
2019-01-29T11:19:49.418Z,10.43
2019-01-29T11:22:16.035Z,11.80
2019-01-29T11:24:42.764Z,8.48
2019-01-29T11:27:09.185Z,10.10
2019-01-29T11:29:36.088Z,7.33
2019-01-29T11:32:02.725Z,11.85
2019-01-29T11:34:29.125Z,9.38
2019-01-29T11:36:55.951Z,7.55
2019-01-29T11:39:22.247Z,12.55
2019-01-29T11:41:48.667Z,8.55
2019-01-29T11:44:15.239Z,10.45
2019-01-29T11:46:41.651Z,14.73
2019-01-29T11:49:07.937Z,6.62
2019-01-29T11:51:34.495Z,8.88
2019-01-29T11:54:00.992Z,6.60
2019-01-29T11:56:27.541Z,7.00
2019-01-29T11:58:53.981Z,9.00
2019-01-29T12:01:20.691Z,7.37
2019-01-29T12:03:47.143Z,7.83
2019-01-29T12:06:13.556Z,6.62
2019-01-29T12:08:40.606Z,6.22
2019-01-29T12:11:07.388Z,4.90
2019-01-29T12:13:33.902Z,9.95
2019-01-29T12:16:00.321Z,7.35
2019-01-29T12:18:26.868Z,28.80
2019-01-29T12:20:53.527Z,16.60
2019-01-29T12:23:20.318Z,11.45
2019-01-29T12:25:46.832Z,10.38
2019-01-29T12:28:13.741Z,13.62
2019-01-29T12:30:40.155Z,22.62
2019-01-29T12:33:07.279Z,17.45
2019-01-29T12:35:33.819Z,8.85
2019-01-29T12:38:00.127Z,10.75
2019-01-29T12:40:26.645Z,13.45
2019-01-29T12:42:53.162Z,10.38
2019-01-29T12:45:19.503Z,8.30
2019-01-29T12:47:46.119Z,12.30
2019-01-29T12:50:25.264Z,9.18
2019-01-29T12:52:56.332Z,7.42
2019-01-29T12:55:23.143Z,9.60
2019-01-29T12:57:50.824Z,7.87
2019-01-29T13:00:19.237Z,7.75
2019-01-29T13:02:45.711Z,10.23
2019-01-29T13:05:13.125Z,7.80
2019-01-29T13:07:39.537Z,5.58
2019-01-29T13:10:12.739Z,8.25
2019-01-29T13:12:39.056Z,7.85
2019-01-29T13:15:09.588Z,5.95
2019-01-29T13:17:36.711Z,7.42
2019-01-29T13:20:06.663Z,9.73
2019-01-29T13:22:33.198Z,8.70
2019-01-29T13:25:00.048Z,7.72
2019-01-29T13:27:26.662Z,6.58
2019-01-29T13:29:53.436Z,6.95
2019-01-29T13:32:20.280Z,7.22
2019-01-29T13:34:46.809Z,8.68
2019-01-29T13:37:13.229Z,9.13
2019-01-29T13:39:39.773Z,12.05
2019-01-29T13:42:06.301Z,10.32
2019-01-29T13:44:32.611Z,15.65
2019-01-29T13:46:59.032Z,8.45
2019-01-29T13:49:25.538Z,9.30
2019-01-29T13:51:51.959Z,9.05
2019-01-29T13:54:18.256Z,6.53
2019-01-29T13:56:44.661Z,5.00
2019-01-29T13:59:11.111Z,7.60
2019-01-29T14:01:37.793Z,5.92
2019-01-29T14:04:06.354Z,6.70
2019-01-29T14:06:33.236Z,5.25
2019-01-29T14:09:00.073Z,6.03
2019-01-29T14:11:26.529Z,4.83
2019-01-29T14:13:53.017Z,6.35
2019-01-29T14:16:19.464Z,4.67
2019-01-29T14:18:45.971Z,4.80
2019-01-29T14:21:12.962Z,5.10
2019-01-29T14:23:39.670Z,5.90
2019-01-29T14:26:06.206Z,4.85
2019-01-29T14:28:33.177Z,3.80
2019-01-29T14:30:59.716Z,5.00
2019-01-29T14:33:26.370Z,4.37
2019-01-29T14:35:53.296Z,7.05
2019-01-29T14:38:29.232Z,5.05
2019-01-29T14:40:55.761Z,7.60
2019-01-29T14:43:25.929Z,4.83
2019-01-29T14:45:52.240Z,7.90
2019-01-29T14:48:19.112Z,6.30
2019-01-29T14:50:45.773Z,10.82
2019-01-29T14:53:12.342Z,5.10
2019-01-29T14:55:38.646Z,8.25
2019-01-29T14:58:05.005Z,8.25
2019-01-29T15:00:33.293Z,4.17
2019-01-29T15:03:00.053Z,4.45
2019-01-29T15:05:26.553Z,10.63
2019-01-29T15:07:53.193Z,3.33
2019-01-29T15:10:23.022Z,7.42
2019-01-29T15:12:49.555Z,3.12
2019-01-29T15:15:19.279Z,4.08
2019-01-29T15:17:47.497Z,4.37
2019-01-29T15:20:14.025Z,4.20
2019-01-29T15:22:40.448Z,4.03
2019-01-29T15:25:12.701Z,6.10
2019-01-29T15:27:39.240Z,3.45
2019-01-29T15:30:09.353Z,5.17
2019-01-29T15:32:38.507Z,6.17
2019-01-29T15:35:06.542Z,4.28
2019-01-29T15:37:32.957Z,5.00
2019-01-29T15:39:59.918Z,7.15
2019-01-29T15:42:26.257Z,5.87
2019-01-29T15:44:52.621Z,4.50
2019-01-29T15:47:18.938Z,5.65
2019-01-29T15:49:45.240Z,7.15
2019-01-29T15:52:11.773Z,53.65
2019-01-29T15:54:38.177Z,30.92
2019-01-29T15:57:04.498Z,48.35
2019-01-29T15:59:31.125Z,10.20
2019-01-29T16:01:57.462Z,9.90
2019-01-29T16:04:23.934Z,8.98
2019-01-29T16:06:50.627Z,6.60
2019-01-29T16:09:17.038Z,3.95
2019-01-29T16:11:43.500Z,9.58
2019-01-29T16:14:10.085Z,7.42
2019-01-29T16:16:36.744Z,7.90
2019-01-29T16:19:03.351Z,8.55
2019-01-29T16:21:29.989Z,9.28
2019-01-29T16:23:56.419Z,7.25
2019-01-29T16:26:22.921Z,6.78
2019-01-29T16:28:49.770Z,4.03
2019-01-29T16:31:16.381Z,3.02
2019-01-29T16:33:43.122Z,5.78
2019-01-29T16:36:09.643Z,3.10
2019-01-29T16:38:36.068Z,2.65
2019-01-29T16:41:02.588Z,3.00
2019-01-29T16:43:28.910Z,2.50
2019-01-29T16:45:55.541Z,1.82
2019-01-29T16:48:22.050Z,3.60
2019-01-29T16:50:48.456Z,2.58
2019-01-29T16:53:15.121Z,2.55
2019-01-29T16:55:41.414Z,1.82
2019-01-29T16:58:07.840Z,1.60
2019-01-29T17:00:36.644Z,4.65
2019-01-29T17:03:03.151Z,1.15
2019-01-29T17:05:29.988Z,3.30
2019-01-29T17:07:56.306Z,4.78
2019-01-29T17:10:25.019Z,3.87
2019-01-29T17:12:51.431Z,3.47
2019-01-29T17:15:27.845Z,6.45
2019-01-29T17:17:55.732Z,3.50
2019-01-29T17:20:30.809Z,6.67
2019-01-29T17:22:57.576Z,6.87
2019-01-29T17:25:24.194Z,7.17
2019-01-29T17:27:50.580Z,9.43
2019-01-29T17:30:29.095Z,11.30
2019-01-29T17:32:55.615Z,4.87
2019-01-29T17:35:26.790Z,5.12
2019-01-29T17:37:53.303Z,7.83
2019-01-29T17:40:20.761Z,6.12
2019-01-29T17:42:47.367Z,5.35
2019-01-29T17:45:25.407Z,6.05
2019-01-29T17:47:52.021Z,6.15
2019-01-29T17:50:21.735Z,10.58
2019-01-29T17:52:48.252Z,8.88
2019-01-29T17:55:15.820Z,7.53
2019-01-29T17:57:50.598Z,5.47
2019-01-29T18:00:14.517Z,10.53
2019-01-29T18:02:41.009Z,3.85
2019-01-29T18:05:07.529Z,9.70
2019-01-29T18:07:33.975Z,6.67
2019-01-29T18:10:00.636Z,5.55
2019-01-29T18:12:27.155Z,1.55
2019-01-29T18:14:53.589Z,3.77
2019-01-29T18:17:20.484Z,4.37
2019-01-29T18:19:47.021Z,1.87
2019-01-29T18:22:13.533Z,1.98
2019-01-29T18:24:40.062Z,1.12
2019-01-29T18:27:06.481Z,1.30
2019-01-29T18:29:33.712Z,1.20
2019-01-29T18:32:01.159Z,1.52
2019-01-29T18:34:27.710Z,2.47
2019-01-29T18:36:54.138Z,1.02
2019-01-29T18:39:20.546Z,2.40
2019-01-29T18:41:47.063Z,3.33
2019-01-29T18:44:13.697Z,4.17
2019-01-29T18:46:40.324Z,1.52
2019-01-29T18:49:06.765Z,3.85
2019-01-29T18:51:33.291Z,0.95
2019-01-29T18:53:59.697Z,2.27
2019-01-29T18:56:26.339Z,0.80
2019-01-29T18:58:53.368Z,2.42
2019-01-29T19:01:20.092Z,1.45
2019-01-29T19:03:46.990Z,2.55
2019-01-29T19:06:13.609Z,1.55
2019-01-29T19:08:40.259Z,0.80
2019-01-29T19:11:07.869Z,1.32
2019-01-29T19:13:35.369Z,3.83
2019-01-29T19:16:02.000Z,3.33
2019-01-29T19:18:28.676Z,1.27
2019-01-29T19:20:55.239Z,1.45
2019-01-29T19:23:21.850Z,10.95
2019-01-29T19:25:48.558Z,4.95
2019-01-29T19:28:21.791Z,6.15
2019-01-29T19:30:43.565Z,3.75
2019-01-29T19:33:10.329Z,4.42
2019-01-29T19:35:36.951Z,5.60
2019-01-29T19:38:03.784Z,1.80
2019-01-29T19:40:30.420Z,5.00
2019-01-29T19:42:57.054Z,3.15
2019-01-29T19:45:26.239Z,3.72
2019-01-29T19:47:53.361Z,2.95
2019-01-29T19:50:24.797Z,1.50
2019-01-29T19:52:51.199Z,1.85
2019-01-29T19:55:17.877Z,1.42
2019-01-29T19:57:44.305Z,1.37
2019-01-29T20:00:14.113Z,5.17
2019-01-29T20:02:40.586Z,2.22
2019-01-29T20:05:08.298Z,1.75
2019-01-29T20:07:34.697Z,1.32
2019-01-29T20:10:01.148Z,1.85
2019-01-29T20:12:28.026Z,2.83
2019-01-29T20:14:54.598Z,3.00
2019-01-29T20:17:21.217Z,1.37
2019-01-29T20:19:47.932Z,2.27
2019-01-29T20:22:14.803Z,2.17
2019-01-29T20:24:41.589Z,2.00
2019-01-29T20:27:08.029Z,0.75
2019-01-29T20:29:34.637Z,1.62
2019-01-29T20:32:01.335Z,4.37
2019-01-29T20:34:27.779Z,2.83
2019-01-29T20:36:54.421Z,2.15
2019-01-29T20:39:21.404Z,4.87
2019-01-29T20:41:47.829Z,0.50
2019-01-29T20:44:14.729Z,3.62
2019-01-29T20:46:41.592Z,2.40
2019-01-29T20:49:08.223Z,1.75
2019-01-29T20:51:34.925Z,3.12
2019-01-29T20:54:01.491Z,8.35
2019-01-29T20:56:27.781Z,4.08
2019-01-29T20:58:54.206Z,1.40
2019-01-29T21:01:21.030Z,3.58
2019-01-29T21:03:47.554Z,16.20
2019-01-29T21:06:14.586Z,8.55
2019-01-29T21:08:40.931Z,13.83
2019-01-29T21:11:07.331Z,20.85
2019-01-29T21:13:33.753Z,11.65
2019-01-29T21:16:00.175Z,16.57
2019-01-29T21:18:26.618Z,20.23
2019-01-29T21:20:57.065Z,19.67
2019-01-29T21:23:21.450Z,10.68
2019-01-29T21:25:47.979Z,9.90
2019-01-29T21:28:14.586Z,6.12
2019-01-29T21:30:43.705Z,12.00
2019-01-29T21:33:09.590Z,9.25
2019-01-29T21:35:35.988Z,11.20
2019-01-29T21:38:02.709Z,4.20
2019-01-29T21:40:29.609Z,8.85
2019-01-29T21:42:56.155Z,10.70
2019-01-29T21:45:23.269Z,3.65
2019-01-29T21:47:51.281Z,7.28
2019-01-29T21:50:20.114Z,4.12
2019-01-29T21:52:46.541Z,3.60
2019-01-29T21:55:14.709Z,3.30
2019-01-29T21:57:41.330Z,2.75
2019-01-29T22:00:15.175Z,4.58
2019-01-29T22:02:41.609Z,4.33
2019-01-29T22:05:11.408Z,4.60
2019-01-29T22:07:38.078Z,0.98
2019-01-29T22:10:08.551Z,5.58
2019-01-29T22:12:35.056Z,3.62
2019-01-29T22:15:01.512Z,4.55
2019-01-29T22:17:27.822Z,1.47
2019-01-29T22:19:54.283Z,1.25
2019-01-29T22:22:20.793Z,1.50
2019-01-29T22:24:47.111Z,3.17
2019-01-29T22:27:13.525Z,0.88
2019-01-29T22:29:39.984Z,1.40
2019-01-29T22:32:06.542Z,0.65
2019-01-29T22:34:33.221Z,2.60
2019-01-29T22:36:59.918Z,1.82
2019-01-29T22:39:26.461Z,1.02
2019-01-29T22:41:53.222Z,5.53
2019-01-29T22:44:20.213Z,1.65
2019-01-29T22:46:46.844Z,1.70
2019-01-29T22:49:14.016Z,0.60
2019-01-29T22:51:40.380Z,2.50
2019-01-29T22:54:06.800Z,1.62
2019-01-29T22:56:33.357Z,0.85
2019-01-29T22:59:00.181Z,1.02
2019-01-29T23:01:29.545Z,0.62
2019-01-29T23:03:57.477Z,0.40
2019-01-29T23:06:46.017Z,0.15
2019-01-29T23:09:12.837Z,0.37
2019-01-29T23:11:39.471Z,0.85
2019-01-29T23:14:06.502Z,0.98
2019-01-29T23:16:33.118Z,0.65
2019-01-29T23:18:59.544Z,0.30
2019-01-29T23:21:26.058Z,0.30
2019-01-29T23:23:52.583Z,1.02
2019-01-29T23:26:19.121Z,0.75
2019-01-29T23:28:45.534Z,0.60
2019-01-29T23:31:11.953Z,1.47
2019-01-29T23:33:38.573Z,0.55
2019-01-29T23:36:05.086Z,1.25
2019-01-29T23:38:31.492Z,0.40
2019-01-29T23:40:58.141Z,0.00
2019-01-29T23:43:24.757Z,0.65
2019-01-29T23:45:51.268Z,0.45
2019-01-29T23:48:17.915Z,0.33
2019-01-29T23:50:44.237Z,0.72
2019-01-29T23:53:10.776Z,0.15
2019-01-29T23:55:37.650Z,2.40
2019-01-29T23:58:04.141Z,2.40
